sensor_id;sensor_type;location;lat;lon;timestamp;P1;durP1;ratioP1;P2;durP2;ratioP2
78925;SDS011;68321;51.276;7.208;2023-04-03T00:01:21;8.37;;;4.60;;
78925;SDS011;68321;51.276;7.208;2023-04-03T00:03:46;5.32;;;4.15;;
78925;SDS011;68321;51.276;7.208;2023-04-03T00:06:12;7.85;;;4.40;;
78925;SDS011;68321;51.276;7.208;2023-04-03T00:08:37;8.15;;;4.25;;
78925;SDS011;68321;51.276;7.208;2023-04-03T00:11:03;7.38;;;5.03;;
78925;SDS011;68321;51.276;7.208;2023-04-03T00:13:30;7.90;;;5.03;;
78925;SDS011;68321;51.276;7.208;2023-04-03T00:15:56;7.93;;;5.53;;
78925;SDS011;68321;51.276;7.208;2023-04-03T00:18:22;6.17;;;4.13;;
78925;SDS011;68321;51.276;7.208;2023-04-03T00:20:47;6.28;;;5.05;;
78925;SDS011;68321;51.276;7.208;2023-04-03T00:23:13;7.32;;;5.13;;
78925;SDS011;68321;51.276;7.208;2023-04-03T00:25:38;7.57;;;4.72;;
78925;SDS011;68321;51.276;7.208;2023-04-03T00:28:04;11.60;;;6.80;;
78925;SDS011;68321;51.276;7.208;2023-04-03T00:30:30;8.70;;;5.97;;
78925;SDS011;68321;51.276;7.208;2023-04-03T00:32:56;10.15;;;5.07;;
78925;SDS011;68321;51.276;7.208;2023-04-03T00:35:22;7.95;;;4.85;;
78925;SDS011;68321;51.276;7.208;2023-04-03T00:37:47;8.13;;;5.60;;
78925;SDS011;68321;51.276;7.208;2023-04-03T00:40:15;8.80;;;4.90;;
78925;SDS011;68321;51.276;7.208;2023-04-03T00:42:41;7.07;;;5.43;;
78925;SDS011;68321;51.276;7.208;2023-04-03T00:47:36;7.18;;;4.32;;
78925;SDS011;68321;51.276;7.208;2023-04-03T00:50:01;7.70;;;5.43;;
78925;SDS011;68321;51.276;7.208;2023-04-03T00:52:28;8.35;;;5.90;;
78925;SDS011;68321;51.276;7.208;2023-04-03T00:54:56;10.70;;;5.68;;
78925;SDS011;68321;51.276;7.208;2023-04-03T00:57:22;10.63;;;6.72;;
78925;SDS011;68321;51.276;7.208;2023-04-03T00:59:49;11.10;;;6.10;;
78925;SDS011;68321;51.276;7.208;2023-04-03T01:02:16;8.10;;;5.53;;
78925;SDS011;68321;51.276;7.208;2023-04-03T01:04:42;7.97;;;5.93;;
78925;SDS011;68321;51.276;7.208;2023-04-03T01:07:15;9.18;;;5.45;;
78925;SDS011;68321;51.276;7.208;2023-04-03T01:09:42;8.82;;;5.35;;
78925;SDS011;68321;51.276;7.208;2023-04-03T01:12:26;10.73;;;5.78;;
78925;SDS011;68321;51.276;7.208;2023-04-03T01:14:54;6.80;;;5.18;;
78925;SDS011;68321;51.276;7.208;2023-04-03T01:17:26;9.57;;;5.15;;
78925;SDS011;68321;51.276;7.208;2023-04-03T01:20:12;5.72;;;4.22;;
78925;SDS011;68321;51.276;7.208;2023-04-03T01:22:58;8.00;;;5.25;;
78925;SDS011;68321;51.276;7.208;2023-04-03T01:25:28;9.13;;;5.38;;
78925;SDS011;68321;51.276;7.208;2023-04-03T01:27:54;9.38;;;6.45;;
78925;SDS011;68321;51.276;7.208;2023-04-03T01:30:20;12.38;;;9.05;;
78925;SDS011;68321;51.276;7.208;2023-04-03T01:32:46;14.18;;;9.95;;
78925;SDS011;68321;51.276;7.208;2023-04-03T01:35:12;18.80;;;10.82;;
78925;SDS011;68321;51.276;7.208;2023-04-03T01:37:37;15.88;;;8.77;;
78925;SDS011;68321;51.276;7.208;2023-04-03T01:40:03;21.93;;;11.67;;
78925;SDS011;68321;51.276;7.208;2023-04-03T01:42:29;16.48;;;11.27;;
78925;SDS011;68321;51.276;7.208;2023-04-03T01:44:55;17.30;;;11.93;;
78925;SDS011;68321;51.276;7.208;2023-04-03T01:47:20;15.40;;;12.07;;
78925;SDS011;68321;51.276;7.208;2023-04-03T01:49:46;19.95;;;11.40;;
78925;SDS011;68321;51.276;7.208;2023-04-03T01:52:12;14.85;;;11.20;;
78925;SDS011;68321;51.276;7.208;2023-04-03T01:54:37;15.48;;;10.38;;
78925;SDS011;68321;51.276;7.208;2023-04-03T01:57:03;15.60;;;10.95;;
78925;SDS011;68321;51.276;7.208;2023-04-03T01:59:28;17.45;;;13.25;;
78925;SDS011;68321;51.276;7.208;2023-04-03T02:01:53;16.33;;;10.83;;
78925;SDS011;68321;51.276;7.208;2023-04-03T02:04:19;14.13;;;9.73;;
78925;SDS011;68321;51.276;7.208;2023-04-03T02:06:44;15.40;;;10.20;;
78925;SDS011;68321;51.276;7.208;2023-04-03T02:09:10;15.38;;;9.57;;
78925;SDS011;68321;51.276;7.208;2023-04-03T02:11:35;14.25;;;9.40;;
78925;SDS011;68321;51.276;7.208;2023-04-03T02:14:00;15.63;;;9.67;;
78925;SDS011;68321;51.276;7.208;2023-04-03T02:16:26;11.50;;;7.67;;
78925;SDS011;68321;51.276;7.208;2023-04-03T02:18:51;10.88;;;6.55;;
78925;SDS011;68321;51.276;7.208;2023-04-03T02:21:17;13.03;;;6.87;;
78925;SDS011;68321;51.276;7.208;2023-04-03T02:23:42;10.13;;;6.07;;
78925;SDS011;68321;51.276;7.208;2023-04-03T02:26:09;10.13;;;6.93;;
78925;SDS011;68321;51.276;7.208;2023-04-03T02:28:36;10.57;;;7.28;;
78925;SDS011;68321;51.276;7.208;2023-04-03T02:31:02;11.65;;;6.88;;
78925;SDS011;68321;51.276;7.208;2023-04-03T02:33:27;14.35;;;7.93;;
78925;SDS011;68321;51.276;7.208;2023-04-03T02:35:54;9.68;;;6.20;;
78925;SDS011;68321;51.276;7.208;2023-04-03T02:38:20;8.27;;;7.30;;
78925;SDS011;68321;51.276;7.208;2023-04-03T02:40:45;10.60;;;6.47;;
78925;SDS011;68321;51.276;7.208;2023-04-03T02:43:10;10.50;;;6.00;;
78925;SDS011;68321;51.276;7.208;2023-04-03T02:45:36;7.93;;;6.30;;
78925;SDS011;68321;51.276;7.208;2023-04-03T02:48:01;8.75;;;5.53;;
78925;SDS011;68321;51.276;7.208;2023-04-03T02:50:26;9.07;;;5.63;;
78925;SDS011;68321;51.276;7.208;2023-04-03T02:52:52;11.73;;;7.70;;
78925;SDS011;68321;51.276;7.208;2023-04-03T02:55:17;8.73;;;6.57;;
78925;SDS011;68321;51.276;7.208;2023-04-03T02:57:42;10.90;;;6.70;;
78925;SDS011;68321;51.276;7.208;2023-04-03T03:00:08;12.47;;;7.30;;
78925;SDS011;68321;51.276;7.208;2023-04-03T03:02:34;9.05;;;6.28;;
78925;SDS011;68321;51.276;7.208;2023-04-03T03:05:00;10.73;;;6.30;;
78925;SDS011;68321;51.276;7.208;2023-04-03T03:07:25;11.68;;;6.20;;
78925;SDS011;68321;51.276;7.208;2023-04-03T03:09:51;9.02;;;6.15;;
78925;SDS011;68321;51.276;7.208;2023-04-03T03:12:16;9.27;;;7.00;;
78925;SDS011;68321;51.276;7.208;2023-04-03T03:14:46;9.77;;;5.93;;
78925;SDS011;68321;51.276;7.208;2023-04-03T03:17:11;10.18;;;6.50;;
78925;SDS011;68321;51.276;7.208;2023-04-03T03:19:37;9.63;;;5.90;;
78925;SDS011;68321;51.276;7.208;2023-04-03T03:22:02;9.13;;;6.43;;
78925;SDS011;68321;51.276;7.208;2023-04-03T03:24:27;9.32;;;5.72;;
78925;SDS011;68321;51.276;7.208;2023-04-03T03:26:53;12.88;;;6.55;;
78925;SDS011;68321;51.276;7.208;2023-04-03T03:29:18;8.23;;;5.73;;
78925;SDS011;68321;51.276;7.208;2023-04-03T03:31:43;12.25;;;7.30;;
78925;SDS011;68321;51.276;7.208;2023-04-03T03:34:09;9.82;;;6.75;;
78925;SDS011;68321;51.276;7.208;2023-04-03T03:36:34;8.07;;;5.88;;
78925;SDS011;68321;51.276;7.208;2023-04-03T03:39:00;9.73;;;6.10;;
78925;SDS011;68321;51.276;7.208;2023-04-03T03:41:25;11.32;;;6.72;;
78925;SDS011;68321;51.276;7.208;2023-04-03T03:43:51;8.18;;;5.50;;
78925;SDS011;68321;51.276;7.208;2023-04-03T03:46:16;10.68;;;5.90;;
78925;SDS011;68321;51.276;7.208;2023-04-03T03:48:41;10.55;;;6.22;;
78925;SDS011;68321;51.276;7.208;2023-04-03T03:51:07;8.60;;;5.70;;
78925;SDS011;68321;51.276;7.208;2023-04-03T03:53:32;8.67;;;6.40;;
78925;SDS011;68321;51.276;7.208;2023-04-03T03:55:57;10.47;;;5.60;;
78925;SDS011;68321;51.276;7.208;2023-04-03T03:58:23;8.82;;;6.50;;
78925;SDS011;68321;51.276;7.208;2023-04-03T04:00:48;9.60;;;6.25;;
78925;SDS011;68321;51.276;7.208;2023-04-03T04:03:14;10.30;;;5.10;;
78925;SDS011;68321;51.276;7.208;2023-04-03T04:05:39;8.43;;;4.63;;
78925;SDS011;68321;51.276;7.208;2023-04-03T04:08:05;6.47;;;4.43;;
78925;SDS011;68321;51.276;7.208;2023-04-03T04:10:30;8.05;;;4.07;;
78925;SDS011;68321;51.276;7.208;2023-04-03T04:12:55;7.67;;;4.97;;
78925;SDS011;68321;51.276;7.208;2023-04-03T04:15:21;7.07;;;4.22;;
78925;SDS011;68321;51.276;7.208;2023-04-03T04:17:46;7.72;;;4.38;;
78925;SDS011;68321;51.276;7.208;2023-04-03T04:20:12;9.23;;;5.20;;
78925;SDS011;68321;51.276;7.208;2023-04-03T04:22:37;7.57;;;4.20;;
78925;SDS011;68321;51.276;7.208;2023-04-03T04:25:04;6.38;;;4.20;;
78925;SDS011;68321;51.276;7.208;2023-04-03T04:27:29;6.40;;;4.60;;
78925;SDS011;68321;51.276;7.208;2023-04-03T04:29:54;6.35;;;3.90;;
78925;SDS011;68321;51.276;7.208;2023-04-03T04:32:20;7.38;;;4.43;;
78925;SDS011;68321;51.276;7.208;2023-04-03T04:34:45;6.82;;;4.53;;
78925;SDS011;68321;51.276;7.208;2023-04-03T04:37:10;6.33;;;3.60;;
78925;SDS011;68321;51.276;7.208;2023-04-03T04:39:36;8.67;;;3.73;;
78925;SDS011;68321;51.276;7.208;2023-04-03T04:42:01;10.63;;;3.77;;
78925;SDS011;68321;51.276;7.208;2023-04-03T04:44:27;5.78;;;3.60;;
78925;SDS011;68321;51.276;7.208;2023-04-03T04:46:52;9.17;;;4.53;;
78925;SDS011;68321;51.276;7.208;2023-04-03T04:49:17;7.75;;;3.33;;
78925;SDS011;68321;51.276;7.208;2023-04-03T04:51:43;7.10;;;4.10;;
78925;SDS011;68321;51.276;7.208;2023-04-03T04:54:08;7.37;;;4.77;;
78925;SDS011;68321;51.276;7.208;2023-04-03T04:56:33;9.23;;;4.17;;
78925;SDS011;68321;51.276;7.208;2023-04-03T04:58:59;5.18;;;3.38;;
78925;SDS011;68321;51.276;7.208;2023-04-03T05:01:24;7.28;;;4.22;;
78925;SDS011;68321;51.276;7.208;2023-04-03T05:03:50;9.07;;;3.72;;
78925;SDS011;68321;51.276;7.208;2023-04-03T05:06:15;7.68;;;3.10;;
78925;SDS011;68321;51.276;7.208;2023-04-03T05:08:41;6.70;;;4.20;;
78925;SDS011;68321;51.276;7.208;2023-04-03T05:11:06;5.63;;;2.63;;
78925;SDS011;68321;51.276;7.208;2023-04-03T05:13:31;7.00;;;3.13;;
78925;SDS011;68321;51.276;7.208;2023-04-03T05:15:57;3.90;;;2.43;;
78925;SDS011;68321;51.276;7.208;2023-04-03T05:18:22;7.05;;;2.92;;
78925;SDS011;68321;51.276;7.208;2023-04-03T05:20:48;6.45;;;2.67;;
78925;SDS011;68321;51.276;7.208;2023-04-03T05:23:14;7.78;;;3.45;;
78925;SDS011;68321;51.276;7.208;2023-04-03T05:25:39;5.82;;;3.28;;
78925;SDS011;68321;51.276;7.208;2023-04-03T05:28:05;7.03;;;2.72;;
78925;SDS011;68321;51.276;7.208;2023-04-03T05:30:30;5.22;;;3.50;;
78925;SDS011;68321;51.276;7.208;2023-04-03T05:32:56;6.28;;;3.30;;
78925;SDS011;68321;51.276;7.208;2023-04-03T05:35:21;11.73;;;4.97;;
78925;SDS011;68321;51.276;7.208;2023-04-03T05:37:46;4.63;;;2.83;;
78925;SDS011;68321;51.276;7.208;2023-04-03T05:40:12;8.27;;;2.70;;
78925;SDS011;68321;51.276;7.208;2023-04-03T05:42:37;4.78;;;2.55;;
78925;SDS011;68321;51.276;7.208;2023-04-03T05:45:03;6.47;;;2.90;;
78925;SDS011;68321;51.276;7.208;2023-04-03T05:47:29;6.25;;;3.00;;
78925;SDS011;68321;51.276;7.208;2023-04-03T05:49:54;10.00;;;3.58;;
78925;SDS011;68321;51.276;7.208;2023-04-03T05:52:21;8.85;;;3.45;;
78925;SDS011;68321;51.276;7.208;2023-04-03T05:54:49;4.90;;;3.15;;
78925;SDS011;68321;51.276;7.208;2023-04-03T05:57:14;6.95;;;2.90;;
78925;SDS011;68321;51.276;7.208;2023-04-03T05:59:41;4.45;;;3.05;;
78925;SDS011;68321;51.276;7.208;2023-04-03T06:02:08;4.75;;;2.63;;
78925;SDS011;68321;51.276;7.208;2023-04-03T06:04:35;6.60;;;3.38;;
78925;SDS011;68321;51.276;7.208;2023-04-03T06:07:01;6.43;;;3.03;;
78925;SDS011;68321;51.276;7.208;2023-04-03T06:09:27;6.80;;;3.13;;
78925;SDS011;68321;51.276;7.208;2023-04-03T06:11:54;8.70;;;3.95;;
78925;SDS011;68321;51.276;7.208;2023-04-03T06:14:20;8.50;;;3.20;;
78925;SDS011;68321;51.276;7.208;2023-04-03T06:16:45;6.30;;;3.00;;
78925;SDS011;68321;51.276;7.208;2023-04-03T06:19:11;8.10;;;3.13;;
78925;SDS011;68321;51.276;7.208;2023-04-03T06:21:36;8.50;;;3.90;;
78925;SDS011;68321;51.276;7.208;2023-04-03T06:24:03;3.75;;;2.70;;
78925;SDS011;68321;51.276;7.208;2023-04-03T06:26:31;6.88;;;2.58;;
78925;SDS011;68321;51.276;7.208;2023-04-03T06:28:57;4.32;;;2.35;;
78925;SDS011;68321;51.276;7.208;2023-04-03T06:31:22;10.35;;;3.17;;
78925;SDS011;68321;51.276;7.208;2023-04-03T06:33:48;5.13;;;2.63;;
78925;SDS011;68321;51.276;7.208;2023-04-03T06:36:13;6.87;;;3.57;;
78925;SDS011;68321;51.276;7.208;2023-04-03T06:38:38;6.95;;;2.72;;
78925;SDS011;68321;51.276;7.208;2023-04-03T06:41:04;4.53;;;2.05;;
78925;SDS011;68321;51.276;7.208;2023-04-03T06:43:29;4.13;;;2.72;;
78925;SDS011;68321;51.276;7.208;2023-04-03T06:45:56;6.47;;;2.92;;
78925;SDS011;68321;51.276;7.208;2023-04-03T06:48:22;5.28;;;2.70;;
78925;SDS011;68321;51.276;7.208;2023-04-03T06:50:47;6.20;;;3.05;;
78925;SDS011;68321;51.276;7.208;2023-04-03T06:53:13;5.97;;;2.75;;
78925;SDS011;68321;51.276;7.208;2023-04-03T06:55:38;4.93;;;2.67;;
78925;SDS011;68321;51.276;7.208;2023-04-03T06:58:04;5.95;;;2.28;;
78925;SDS011;68321;51.276;7.208;2023-04-03T07:00:30;5.78;;;3.20;;
78925;SDS011;68321;51.276;7.208;2023-04-03T07:02:56;5.45;;;2.47;;
78925;SDS011;68321;51.276;7.208;2023-04-03T07:05:22;6.15;;;3.38;;
78925;SDS011;68321;51.276;7.208;2023-04-03T07:07:48;7.03;;;2.40;;
78925;SDS011;68321;51.276;7.208;2023-04-03T07:10:14;5.30;;;2.85;;
78925;SDS011;68321;51.276;7.208;2023-04-03T07:12:40;4.90;;;2.25;;
78925;SDS011;68321;51.276;7.208;2023-04-03T07:15:06;5.60;;;2.58;;
78925;SDS011;68321;51.276;7.208;2023-04-03T07:17:32;4.97;;;2.42;;
78925;SDS011;68321;51.276;7.208;2023-04-03T07:19:57;6.43;;;3.05;;
78925;SDS011;68321;51.276;7.208;2023-04-03T07:22:23;5.43;;;2.33;;
78925;SDS011;68321;51.276;7.208;2023-04-03T07:24:48;8.32;;;3.38;;
78925;SDS011;68321;51.276;7.208;2023-04-03T07:27:14;6.63;;;2.72;;
78925;SDS011;68321;51.276;7.208;2023-04-03T07:29:39;13.17;;;2.87;;
78925;SDS011;68321;51.276;7.208;2023-04-03T07:32:05;5.55;;;2.63;;
78925;SDS011;68321;51.276;7.208;2023-04-03T07:34:31;4.03;;;2.13;;
78925;SDS011;68321;51.276;7.208;2023-04-03T07:36:57;3.22;;;1.83;;
78925;SDS011;68321;51.276;7.208;2023-04-03T07:39:23;4.75;;;2.92;;
78925;SDS011;68321;51.276;7.208;2023-04-03T07:41:48;3.50;;;2.30;;
78925;SDS011;68321;51.276;7.208;2023-04-03T07:44:13;3.73;;;1.73;;
78925;SDS011;68321;51.276;7.208;2023-04-03T07:46:39;5.95;;;3.92;;
78925;SDS011;68321;51.276;7.208;2023-04-03T07:49:05;7.65;;;3.30;;
78925;SDS011;68321;51.276;7.208;2023-04-03T07:51:31;7.60;;;1.92;;
78925;SDS011;68321;51.276;7.208;2023-04-03T07:53:56;4.18;;;2.90;;
78925;SDS011;68321;51.276;7.208;2023-04-03T07:56:22;6.85;;;3.30;;
78925;SDS011;68321;51.276;7.208;2023-04-03T07:58:48;6.10;;;1.65;;
78925;SDS011;68321;51.276;7.208;2023-04-03T08:01:13;5.47;;;1.97;;
78925;SDS011;68321;51.276;7.208;2023-04-03T08:03:39;6.65;;;2.55;;
78925;SDS011;68321;51.276;7.208;2023-04-03T08:06:05;2.97;;;2.10;;
78925;SDS011;68321;51.276;7.208;2023-04-03T08:08:31;6.20;;;2.70;;
78925;SDS011;68321;51.276;7.208;2023-04-03T08:10:58;5.28;;;2.45;;
78925;SDS011;68321;51.276;7.208;2023-04-03T08:13:24;6.28;;;2.22;;
78925;SDS011;68321;51.276;7.208;2023-04-03T08:15:49;5.22;;;2.05;;
78925;SDS011;68321;51.276;7.208;2023-04-03T08:18:16;4.05;;;2.50;;
78925;SDS011;68321;51.276;7.208;2023-04-03T08:20:41;5.70;;;2.30;;
78925;SDS011;68321;51.276;7.208;2023-04-03T08:23:07;6.55;;;2.28;;
78925;SDS011;68321;51.276;7.208;2023-04-03T08:25:42;6.05;;;3.28;;
78925;SDS011;68321;51.276;7.208;2023-04-03T08:28:10;4.97;;;3.30;;
78925;SDS011;68321;51.276;7.208;2023-04-03T08:30:38;6.15;;;2.22;;
78925;SDS011;68321;51.276;7.208;2023-04-03T08:33:04;4.88;;;1.83;;
78925;SDS011;68321;51.276;7.208;2023-04-03T08:35:29;4.27;;;2.30;;
78925;SDS011;68321;51.276;7.208;2023-04-03T08:37:55;3.83;;;2.40;;
78925;SDS011;68321;51.276;7.208;2023-04-03T08:40:21;4.97;;;2.45;;
78925;SDS011;68321;51.276;7.208;2023-04-03T08:42:51;4.43;;;2.00;;
78925;SDS011;68321;51.276;7.208;2023-04-03T08:48:12;5.00;;;2.63;;
78925;SDS011;68321;51.276;7.208;2023-04-03T08:50:40;2.72;;;1.95;;
78925;SDS011;68321;51.276;7.208;2023-04-03T08:53:25;2.45;;;2.00;;
78925;SDS011;68321;51.276;7.208;2023-04-03T08:55:53;3.25;;;1.90;;
78925;SDS011;68321;51.276;7.208;2023-04-03T08:58:21;4.15;;;2.00;;
78925;SDS011;68321;51.276;7.208;2023-04-03T09:00:51;4.38;;;1.98;;
78925;SDS011;68321;51.276;7.208;2023-04-03T09:03:21;2.80;;;1.90;;
78925;SDS011;68321;51.276;7.208;2023-04-03T09:08:27;3.08;;;2.03;;
78925;SDS011;68321;51.276;7.208;2023-04-03T09:13:55;6.25;;;1.80;;
78925;SDS011;68321;51.276;7.208;2023-04-03T09:16:36;3.55;;;1.90;;
78925;SDS011;68321;51.276;7.208;2023-04-03T09:22:17;6.30;;;2.78;;
78925;SDS011;68321;51.276;7.208;2023-04-03T09:24:47;3.20;;;1.73;;
78925;SDS011;68321;51.276;7.208;2023-04-03T09:27:21;3.08;;;2.00;;
78925;SDS011;68321;51.276;7.208;2023-04-03T09:29:46;4.80;;;2.30;;
78925;SDS011;68321;51.276;7.208;2023-04-03T09:32:18;3.30;;;1.90;;
78925;SDS011;68321;51.276;7.208;2023-04-03T09:37:12;2.95;;;2.35;;
78925;SDS011;68321;51.276;7.208;2023-04-03T09:40:03;6.40;;;2.25;;
78925;SDS011;68321;51.276;7.208;2023-04-03T09:42:30;3.00;;;1.67;;
78925;SDS011;68321;51.276;7.208;2023-04-03T09:45:01;3.25;;;1.70;;
78925;SDS011;68321;51.276;7.208;2023-04-03T09:47:29;3.88;;;2.35;;
78925;SDS011;68321;51.276;7.208;2023-04-03T09:52:48;4.18;;;2.05;;
78925;SDS011;68321;51.276;7.208;2023-04-03T09:55:26;2.42;;;1.75;;
78925;SDS011;68321;51.276;7.208;2023-04-03T09:57:54;5.70;;;2.47;;
78925;SDS011;68321;51.276;7.208;2023-04-03T10:00:27;4.82;;;2.63;;
78925;SDS011;68321;51.276;7.208;2023-04-03T10:02:58;3.10;;;2.05;;
78925;SDS011;68321;51.276;7.208;2023-04-03T10:05:45;2.97;;;1.85;;
78925;SDS011;68321;51.276;7.208;2023-04-03T10:10:38;3.10;;;1.83;;
78925;SDS011;68321;51.276;7.208;2023-04-03T10:13:06;3.15;;;1.88;;
78925;SDS011;68321;51.276;7.208;2023-04-03T10:15:39;2.83;;;1.77;;
78925;SDS011;68321;51.276;7.208;2023-04-03T10:20:48;2.25;;;1.15;;
78925;SDS011;68321;51.276;7.208;2023-04-03T10:23:22;1.95;;;1.27;;
78925;SDS011;68321;51.276;7.208;2023-04-03T10:39:36;3.33;;;1.33;;
78925;SDS011;68321;51.276;7.208;2023-04-03T10:42:28;2.03;;;1.25;;
78925;SDS011;68321;51.276;7.208;2023-04-03T10:50:39;2.85;;;1.77;;
78925;SDS011;68321;51.276;7.208;2023-04-03T10:58:43;3.33;;;1.30;;
78925;SDS011;68321;51.276;7.208;2023-04-03T11:01:13;1.58;;;1.05;;
78925;SDS011;68321;51.276;7.208;2023-04-03T11:03:43;1.83;;;1.30;;
78925;SDS011;68321;51.276;7.208;2023-04-03T11:06:11;2.15;;;1.17;;
78925;SDS011;68321;51.276;7.208;2023-04-03T11:08:38;1.92;;;1.08;;
78925;SDS011;68321;51.276;7.208;2023-04-03T11:11:15;5.70;;;2.20;;
78925;SDS011;68321;51.276;7.208;2023-04-03T11:16:35;1.98;;;1.20;;
78925;SDS011;68321;51.276;7.208;2023-04-03T11:19:14;2.05;;;1.50;;
78925;SDS011;68321;51.276;7.208;2023-04-03T11:24:24;2.45;;;1.38;;
78925;SDS011;68321;51.276;7.208;2023-04-03T11:26:51;2.22;;;1.45;;
78925;SDS011;68321;51.276;7.208;2023-04-03T11:29:20;2.00;;;1.30;;
78925;SDS011;68321;51.276;7.208;2023-04-03T11:34:49;2.47;;;1.30;;
78925;SDS011;68321;51.276;7.208;2023-04-03T11:40:18;4.57;;;1.30;;
78925;SDS011;68321;51.276;7.208;2023-04-03T11:42:47;3.80;;;1.70;;
78925;SDS011;68321;51.276;7.208;2023-04-03T11:47:53;3.83;;;1.77;;
78925;SDS011;68321;51.276;7.208;2023-04-03T12:16:26;1.55;;;1.33;;
78925;SDS011;68321;51.276;7.208;2023-04-03T12:24:02;2.33;;;1.27;;
78925;SDS011;68321;51.276;7.208;2023-04-03T12:29:20;2.83;;;1.52;;
78925;SDS011;68321;51.276;7.208;2023-04-03T12:37:34;3.00;;;1.52;;
78925;SDS011;68321;51.276;7.208;2023-04-03T12:40:26;1.80;;;1.45;;
78925;SDS011;68321;51.276;7.208;2023-04-03T12:43:35;2.50;;;1.20;;
78925;SDS011;68321;51.276;7.208;2023-04-03T12:45:52;2.58;;;1.90;;
78925;SDS011;68321;51.276;7.208;2023-04-03T12:48:25;2.55;;;1.58;;
78925;SDS011;68321;51.276;7.208;2023-04-03T12:50:52;3.50;;;2.17;;
78925;SDS011;68321;51.276;7.208;2023-04-03T12:53:27;2.63;;;1.48;;
78925;SDS011;68321;51.276;7.208;2023-04-03T12:55:55;3.40;;;1.35;;
78925;SDS011;68321;51.276;7.208;2023-04-03T12:58:25;1.70;;;1.50;;
78925;SDS011;68321;51.276;7.208;2023-04-03T13:01:25;3.10;;;2.25;;
78925;SDS011;68321;51.276;7.208;2023-04-03T13:03:47;3.05;;;1.30;;
78925;SDS011;68321;51.276;7.208;2023-04-03T13:06:16;2.08;;;1.40;;
78925;SDS011;68321;51.276;7.208;2023-04-03T13:08:53;3.22;;;1.65;;
78925;SDS011;68321;51.276;7.208;2023-04-03T13:11:22;2.33;;;1.50;;
78925;SDS011;68321;51.276;7.208;2023-04-03T13:16:21;2.15;;;1.33;;
78925;SDS011;68321;51.276;7.208;2023-04-03T13:18:51;2.33;;;1.63;;
78925;SDS011;68321;51.276;7.208;2023-04-03T13:21:18;6.15;;;2.20;;
78925;SDS011;68321;51.276;7.208;2023-04-03T13:23:46;4.75;;;1.42;;
78925;SDS011;68321;51.276;7.208;2023-04-03T13:26:18;3.50;;;1.50;;
78925;SDS011;68321;51.276;7.208;2023-04-03T13:28:44;4.22;;;1.77;;
78925;SDS011;68321;51.276;7.208;2023-04-03T13:33:39;2.58;;;1.63;;
78925;SDS011;68321;51.276;7.208;2023-04-03T13:36:36;4.60;;;1.45;;
78925;SDS011;68321;51.276;7.208;2023-04-03T13:39:05;2.72;;;1.60;;
78925;SDS011;68321;51.276;7.208;2023-04-03T13:41:41;2.25;;;1.50;;
78925;SDS011;68321;51.276;7.208;2023-04-03T13:46:46;2.83;;;1.65;;
78925;SDS011;68321;51.276;7.208;2023-04-03T13:51:56;2.38;;;1.20;;
78925;SDS011;68321;51.276;7.208;2023-04-03T13:54:33;3.10;;;1.52;;
78925;SDS011;68321;51.276;7.208;2023-04-03T13:57:01;6.32;;;1.65;;
78925;SDS011;68321;51.276;7.208;2023-04-03T13:59:35;5.28;;;1.83;;
78925;SDS011;68321;51.276;7.208;2023-04-03T14:06:55;2.97;;;1.52;;
78925;SDS011;68321;51.276;7.208;2023-04-03T14:09:21;3.83;;;1.48;;
78925;SDS011;68321;51.276;7.208;2023-04-03T14:11:48;4.00;;;1.45;;
78925;SDS011;68321;51.276;7.208;2023-04-03T14:16:54;5.40;;;1.45;;
78925;SDS011;68321;51.276;7.208;2023-04-03T14:19:23;2.45;;;1.60;;
78925;SDS011;68321;51.276;7.208;2023-04-03T14:21:53;2.13;;;1.40;;
78925;SDS011;68321;51.276;7.208;2023-04-03T14:24:20;2.88;;;2.10;;
78925;SDS011;68321;51.276;7.208;2023-04-03T14:26:47;3.50;;;1.35;;
78925;SDS011;68321;51.276;7.208;2023-04-03T14:29:14;2.70;;;1.52;;
78925;SDS011;68321;51.276;7.208;2023-04-03T14:31:40;3.63;;;1.80;;
78925;SDS011;68321;51.276;7.208;2023-04-03T14:34:07;3.72;;;1.70;;
78925;SDS011;68321;51.276;7.208;2023-04-03T14:36:32;3.22;;;2.45;;
78925;SDS011;68321;51.276;7.208;2023-04-03T14:38:58;2.40;;;1.52;;
78925;SDS011;68321;51.276;7.208;2023-04-03T14:41:25;4.85;;;1.45;;
78925;SDS011;68321;51.276;7.208;2023-04-03T14:43:51;3.20;;;1.67;;
78925;SDS011;68321;51.276;7.208;2023-04-03T14:46:18;4.95;;;2.42;;
78925;SDS011;68321;51.276;7.208;2023-04-03T14:48:47;3.22;;;1.58;;
78925;SDS011;68321;51.276;7.208;2023-04-03T14:51:13;2.60;;;1.20;;
78925;SDS011;68321;51.276;7.208;2023-04-03T14:53:40;3.38;;;1.60;;
78925;SDS011;68321;51.276;7.208;2023-04-03T14:56:21;3.65;;;1.70;;
78925;SDS011;68321;51.276;7.208;2023-04-03T14:58:49;5.10;;;1.60;;
78925;SDS011;68321;51.276;7.208;2023-04-03T15:01:15;3.05;;;1.63;;
78925;SDS011;68321;51.276;7.208;2023-04-03T15:03:42;4.47;;;1.30;;
78925;SDS011;68321;51.276;7.208;2023-04-03T15:06:08;3.10;;;2.17;;
78925;SDS011;68321;51.276;7.208;2023-04-03T15:08:35;3.38;;;1.67;;
78925;SDS011;68321;51.276;7.208;2023-04-03T15:11:01;4.13;;;1.40;;
78925;SDS011;68321;51.276;7.208;2023-04-03T15:13:26;3.38;;;1.73;;
78925;SDS011;68321;51.276;7.208;2023-04-03T15:15:52;5.72;;;2.17;;
78925;SDS011;68321;51.276;7.208;2023-04-03T15:18:19;2.40;;;1.50;;
78925;SDS011;68321;51.276;7.208;2023-04-03T15:20:45;3.08;;;1.67;;
78925;SDS011;68321;51.276;7.208;2023-04-03T15:23:12;2.53;;;1.63;;
78925;SDS011;68321;51.276;7.208;2023-04-03T15:25:38;2.10;;;1.48;;
78925;SDS011;68321;51.276;7.208;2023-04-03T15:28:04;3.63;;;1.80;;
78925;SDS011;68321;51.276;7.208;2023-04-03T15:30:30;3.45;;;1.70;;
78925;SDS011;68321;51.276;7.208;2023-04-03T15:32:56;2.05;;;1.30;;
78925;SDS011;68321;51.276;7.208;2023-04-03T15:35:22;4.55;;;1.45;;
78925;SDS011;68321;51.276;7.208;2023-04-03T15:37:47;3.10;;;1.50;;
78925;SDS011;68321;51.276;7.208;2023-04-03T15:40:13;5.60;;;2.75;;
78925;SDS011;68321;51.276;7.208;2023-04-03T15:42:39;3.05;;;1.52;;
78925;SDS011;68321;51.276;7.208;2023-04-03T15:45:05;3.53;;;1.67;;
78925;SDS011;68321;51.276;7.208;2023-04-03T15:47:31;2.38;;;1.48;;
78925;SDS011;68321;51.276;7.208;2023-04-03T15:49:57;2.75;;;1.73;;
78925;SDS011;68321;51.276;7.208;2023-04-03T15:52:22;4.43;;;2.95;;
78925;SDS011;68321;51.276;7.208;2023-04-03T15:54:48;5.93;;;2.08;;
78925;SDS011;68321;51.276;7.208;2023-04-03T15:57:13;4.38;;;1.60;;
78925;SDS011;68321;51.276;7.208;2023-04-03T15:59:38;3.30;;;1.43;;
78925;SDS011;68321;51.276;7.208;2023-04-03T16:02:05;5.40;;;2.08;;
78925;SDS011;68321;51.276;7.208;2023-04-03T16:04:32;3.78;;;1.80;;
78925;SDS011;68321;51.276;7.208;2023-04-03T16:07:00;3.80;;;1.98;;
78925;SDS011;68321;51.276;7.208;2023-04-03T16:09:26;3.85;;;2.00;;
78925;SDS011;68321;51.276;7.208;2023-04-03T16:11:51;4.07;;;1.27;;
78925;SDS011;68321;51.276;7.208;2023-04-03T16:14:17;2.80;;;1.40;;
78925;SDS011;68321;51.276;7.208;2023-04-03T16:16:42;4.30;;;1.67;;
78925;SDS011;68321;51.276;7.208;2023-04-03T16:19:08;1.67;;;1.10;;
78925;SDS011;68321;51.276;7.208;2023-04-03T16:21:34;3.63;;;1.95;;
78925;SDS011;68321;51.276;7.208;2023-04-03T16:23:59;3.03;;;1.65;;
78925;SDS011;68321;51.276;7.208;2023-04-03T16:26:25;3.63;;;1.83;;
78925;SDS011;68321;51.276;7.208;2023-04-03T16:28:51;5.78;;;1.98;;
78925;SDS011;68321;51.276;7.208;2023-04-03T16:31:17;4.47;;;1.75;;
78925;SDS011;68321;51.276;7.208;2023-04-03T16:33:42;5.15;;;1.65;;
78925;SDS011;68321;51.276;7.208;2023-04-03T16:36:07;2.90;;;1.55;;
78925;SDS011;68321;51.276;7.208;2023-04-03T16:38:33;5.22;;;1.52;;
78925;SDS011;68321;51.276;7.208;2023-04-03T16:40:58;4.60;;;1.85;;
78925;SDS011;68321;51.276;7.208;2023-04-03T16:43:27;2.17;;;1.60;;
78925;SDS011;68321;51.276;7.208;2023-04-03T16:45:52;4.07;;;1.70;;
78925;SDS011;68321;51.276;7.208;2023-04-03T16:48:18;7.88;;;2.13;;